createdAt,value
2018-05-25T00:01:56.492Z,17.68
2018-05-25T00:04:25.278Z,17.65
2018-05-25T00:06:54.139Z,17.62
2018-05-25T00:09:22.823Z,17.59
2018-05-25T00:11:53.031Z,17.53
2018-05-25T00:14:21.954Z,17.50
2018-05-25T00:16:58.750Z,17.47
2018-05-25T00:19:27.389Z,17.43
2018-05-25T00:21:56.007Z,18.12
2018-05-25T00:24:24.687Z,17.59
2018-05-25T00:26:53.316Z,17.41
2018-05-25T00:29:22.034Z,17.30
2018-05-25T00:31:53.252Z,17.16
2018-05-25T00:34:26.282Z,17.03
2018-05-25T00:37:00.362Z,16.92
2018-05-25T00:39:32.390Z,16.84
2018-05-25T00:42:01.070Z,16.75
2018-05-25T00:44:30.605Z,16.69
2018-05-25T00:47:00.516Z,16.65
2018-05-25T00:49:30.627Z,16.61
2018-05-25T00:51:59.293Z,16.57
2018-05-25T00:54:28.332Z,17.24
2018-05-25T00:56:58.812Z,16.73
2018-05-25T00:59:27.531Z,17.29
2018-05-25T01:01:58.054Z,16.75
2018-05-25T01:04:26.714Z,16.61
2018-05-25T01:06:55.359Z,17.22
2018-05-25T01:09:35.953Z,16.68
2018-05-25T01:14:44.384Z,16.40
2018-05-25T01:17:13.499Z,16.31
2018-05-25T01:19:45.433Z,16.21
2018-05-25T01:22:14.134Z,16.12
2018-05-25T01:24:42.784Z,16.04
2018-05-25T01:27:11.529Z,16.74
2018-05-25T01:29:42.583Z,16.22
2018-05-25T01:32:12.843Z,16.81
2018-05-25T01:34:43.121Z,16.21
2018-05-25T01:37:12.386Z,16.03
2018-05-25T01:39:42.993Z,16.70
2018-05-25T01:42:13.540Z,16.17
2018-05-25T01:44:42.201Z,16.81
2018-05-25T01:47:14.852Z,16.29
2018-05-25T01:49:44.501Z,16.17
2018-05-25T01:52:14.536Z,16.11
2018-05-25T01:54:44.678Z,16.02
2018-05-25T01:57:25.943Z,15.91
2018-05-25T01:59:55.560Z,15.84
2018-05-25T02:02:24.337Z,15.82
2018-05-25T02:04:55.612Z,15.80
2018-05-25T02:07:26.209Z,15.79
2018-05-25T02:10:02.798Z,16.48
2018-05-25T02:12:34.507Z,15.96
2018-05-25T02:15:04.584Z,15.86
2018-05-25T02:17:41.743Z,15.80
2018-05-25T02:20:10.666Z,15.70
2018-05-25T02:22:39.557Z,15.66
2018-05-25T02:25:10.365Z,15.66
2018-05-25T02:27:43.157Z,16.37
2018-05-25T02:30:13.214Z,15.84
2018-05-25T02:32:42.199Z,15.75
2018-05-25T02:35:11.015Z,15.74
2018-05-25T02:37:41.311Z,15.72
2018-05-25T02:40:11.344Z,16.50
2018-05-25T02:42:49.476Z,16.05
2018-05-25T02:45:18.801Z,16.77
2018-05-25T02:47:50.136Z,16.30
2018-05-25T02:50:24.673Z,16.21
2018-05-25T02:52:59.496Z,16.18
2018-05-25T02:55:29.648Z,16.14
2018-05-25T02:58:01.206Z,16.12
2018-05-25T03:00:42.881Z,16.10
2018-05-25T03:03:11.779Z,16.07
2018-05-25T03:05:44.957Z,16.04
2018-05-25T03:08:14.477Z,16.04
2018-05-25T03:10:47.457Z,16.09
2018-05-25T03:13:16.696Z,16.13
2018-05-25T03:15:57.335Z,16.14
2018-05-25T03:21:18.701Z,16.98
2018-05-25T03:23:47.653Z,17.20
2018-05-25T03:26:37.070Z,16.73
2018-05-25T03:29:06.256Z,17.42
2018-05-25T03:31:35.042Z,16.92
2018-05-25T03:34:04.193Z,17.58
2018-05-25T03:36:32.897Z,17.09
2018-05-25T03:39:01.509Z,17.04
2018-05-25T03:41:30.158Z,17.03
2018-05-25T03:43:58.765Z,17.03
2018-05-25T03:46:27.404Z,17.03
2018-05-25T03:48:56.048Z,17.02
2018-05-25T03:51:24.698Z,17.07
2018-05-25T03:53:53.368Z,17.11
2018-05-25T03:56:21.940Z,17.16
2018-05-25T03:59:28.802Z,17.22
2018-05-25T04:02:00.250Z,17.22
2018-05-25T04:04:31.900Z,17.26
2018-05-25T04:07:00.495Z,17.33
2018-05-25T04:09:29.233Z,17.39
2018-05-25T04:11:59.089Z,17.44
2018-05-25T04:14:27.962Z,18.33
2018-05-25T04:16:56.833Z,17.85
2018-05-25T04:19:25.782Z,17.81
2018-05-25T04:21:55.011Z,17.77
2018-05-25T04:24:25.202Z,17.74
2018-05-25T04:26:53.981Z,17.73
2018-05-25T04:29:22.806Z,17.70
2018-05-25T04:31:53.236Z,17.73
2018-05-25T04:34:22.612Z,17.74
2018-05-25T04:36:51.858Z,18.54
2018-05-25T04:39:22.545Z,18.77
2018-05-25T04:41:51.584Z,18.88
2018-05-25T04:44:23.310Z,18.32
2018-05-25T04:46:52.435Z,18.20
2018-05-25T04:49:24.792Z,18.17
2018-05-25T04:51:53.644Z,18.93
2018-05-25T04:54:23.829Z,19.08
2018-05-25T04:56:54.877Z,18.51
2018-05-25T04:59:23.803Z,18.39
2018-05-25T05:01:52.949Z,18.37
2018-05-25T05:04:32.431Z,18.34
2018-05-25T05:07:01.407Z,18.32
2018-05-25T05:09:31.782Z,18.29
2018-05-25T05:12:01.080Z,18.30
2018-05-25T05:14:29.959Z,18.29
2018-05-25T05:16:58.675Z,18.31
2018-05-25T05:19:28.112Z,18.32
2018-05-25T05:21:59.628Z,18.34
2018-05-25T05:24:32.751Z,18.38
2018-05-25T05:27:02.207Z,18.42
2018-05-25T05:29:32.092Z,18.50
2018-05-25T05:32:00.756Z,18.56
2018-05-25T05:34:32.533Z,18.62
2018-05-25T05:37:01.762Z,18.69
2018-05-25T05:39:32.093Z,18.74
2018-05-25T05:42:02.901Z,19.63
2018-05-25T05:44:31.926Z,19.22
2018-05-25T05:47:00.618Z,19.24
2018-05-25T05:49:29.507Z,19.31
2018-05-25T05:51:58.627Z,19.37
2018-05-25T05:54:27.337Z,19.45
2018-05-25T05:56:56.531Z,20.32
2018-05-25T05:59:27.085Z,19.93
2018-05-25T06:01:55.853Z,20.76
2018-05-25T06:04:38.940Z,20.34
2018-05-25T06:07:08.636Z,20.37
2018-05-25T06:09:37.720Z,20.45
2018-05-25T06:12:06.719Z,20.61
2018-05-25T06:14:40.031Z,20.79
2018-05-25T06:17:10.376Z,21.00
2018-05-25T06:19:40.980Z,21.19
2018-05-25T06:22:10.865Z,21.36
2018-05-25T06:24:41.305Z,21.57
2018-05-25T06:27:13.970Z,21.77
2018-05-25T06:29:42.898Z,21.93
2018-05-25T06:32:13.171Z,22.11
2018-05-25T06:34:44.672Z,22.28
2018-05-25T06:40:04.602Z,22.42
2018-05-25T06:42:37.914Z,22.58
2018-05-25T06:45:09.658Z,22.69
2018-05-25T06:47:41.102Z,22.84
2018-05-25T06:50:14.991Z,22.98
2018-05-25T06:52:49.537Z,23.14
2018-05-25T06:55:19.974Z,23.27
2018-05-25T06:57:48.818Z,23.39
2018-05-25T07:00:18.293Z,23.50
2018-05-25T07:02:52.153Z,23.63
2018-05-25T07:05:23.596Z,23.74
2018-05-25T07:07:53.999Z,23.92
2018-05-25T07:10:29.649Z,24.99
2018-05-25T07:12:59.156Z,24.43
2018-05-25T07:15:29.514Z,25.36
2018-05-25T07:17:59.644Z,24.79
2018-05-25T07:20:32.511Z,25.72
2018-05-25T07:23:05.355Z,25.17
2018-05-25T07:25:37.008Z,26.03
2018-05-25T07:28:05.663Z,25.35
2018-05-25T07:30:34.781Z,25.18
2018-05-25T07:33:03.513Z,25.25
2018-05-25T07:35:32.451Z,25.28
2018-05-25T07:38:01.511Z,26.30
2018-05-25T07:40:30.209Z,25.62
2018-05-25T07:42:59.289Z,26.53
2018-05-25T07:45:27.967Z,25.77
2018-05-25T07:47:56.623Z,25.64
2018-05-25T07:50:25.690Z,25.42
2018-05-25T07:52:55.448Z,25.46
2018-05-25T07:55:24.473Z,25.41
2018-05-25T07:57:53.238Z,25.61
2018-05-25T08:00:22.025Z,25.63
2018-05-25T08:02:51.036Z,26.81
2018-05-25T08:05:19.742Z,26.15
2018-05-25T08:08:05.478Z,26.17
2018-05-25T08:10:34.161Z,25.97
2018-05-25T08:13:05.100Z,26.05
2018-05-25T08:15:33.703Z,26.17
2018-05-25T08:18:02.742Z,26.32
2018-05-25T08:20:31.395Z,27.50
2018-05-25T08:23:18.492Z,26.82
2018-05-25T08:25:49.375Z,26.79
2018-05-25T08:28:19.264Z,26.90
2018-05-25T08:30:48.860Z,26.89
2018-05-25T08:33:18.831Z,26.89
2018-05-25T08:35:49.545Z,27.00
2018-05-25T08:38:18.197Z,27.09
2018-05-25T08:40:47.274Z,27.20
2018-05-25T08:43:15.925Z,28.39
2018-05-25T08:45:44.821Z,27.70
2018-05-25T08:48:13.486Z,27.68
2018-05-25T08:50:42.821Z,27.69
2018-05-25T08:53:11.499Z,27.82
2018-05-25T08:55:40.373Z,27.92
2018-05-25T08:58:09.222Z,27.95
2018-05-25T09:00:38.238Z,27.84
2018-05-25T09:03:06.889Z,29.08
2018-05-25T09:05:35.547Z,28.27
2018-05-25T09:08:05.931Z,28.20
2018-05-25T09:10:37.126Z,28.19
2018-05-25T09:13:06.048Z,28.25
2018-05-25T09:15:34.940Z,28.32
2018-05-25T09:18:04.337Z,28.49
2018-05-25T09:20:32.963Z,28.64
2018-05-25T09:23:01.951Z,28.73
2018-05-25T09:25:30.611Z,28.90
2018-05-25T09:28:01.380Z,28.96
2018-05-25T09:30:30.038Z,28.96
2018-05-25T09:32:58.890Z,29.03
2018-05-25T09:35:27.558Z,30.29
2018-05-25T09:37:56.826Z,29.50
2018-05-25T09:40:25.709Z,29.32
2018-05-25T09:42:54.521Z,29.34
2018-05-25T09:45:23.210Z,29.41
2018-05-25T09:47:51.813Z,29.52
2018-05-25T09:50:22.990Z,29.66
2018-05-25T09:52:51.751Z,29.74
2018-05-25T09:55:20.861Z,29.88
2018-05-25T09:57:58.819Z,30.03
2018-05-25T10:00:27.441Z,30.27
2018-05-25T10:02:56.107Z,30.47
2018-05-25T10:05:25.048Z,30.62
2018-05-25T10:07:53.738Z,30.77
2018-05-25T10:10:22.448Z,30.97
2018-05-25T10:12:52.919Z,31.09
2018-05-25T10:15:22.003Z,31.20
2018-05-25T10:17:51.179Z,31.31
2018-05-25T10:20:23.160Z,31.37
2018-05-25T10:22:51.755Z,31.34
2018-05-25T10:25:24.479Z,31.30
2018-05-25T10:27:53.290Z,31.34
2018-05-25T10:30:40.148Z,31.39
2018-05-25T10:33:09.108Z,31.37
2018-05-25T10:35:37.771Z,31.37
2018-05-25T10:38:06.798Z,31.35
2018-05-25T10:40:35.861Z,31.35
2018-05-25T10:43:04.667Z,31.43
2018-05-25T10:45:33.362Z,31.58
2018-05-25T10:48:03.886Z,31.78
2018-05-25T10:50:40.376Z,32.06
2018-05-25T10:53:17.085Z,32.31
2018-05-25T10:55:50.312Z,32.19
2018-05-25T10:58:27.499Z,32.95
2018-05-25T11:03:46.605Z,31.60
2018-05-25T11:09:04.883Z,31.44
2018-05-25T11:11:33.789Z,31.38
2018-05-25T11:14:02.514Z,31.19
2018-05-25T11:16:31.760Z,31.23
2018-05-25T11:19:00.687Z,31.49
2018-05-25T11:21:29.353Z,31.57
2018-05-25T11:24:07.740Z,32.88
2018-05-25T11:26:37.434Z,32.11
2018-05-25T11:29:13.149Z,32.24
2018-05-25T11:31:41.854Z,32.41
2018-05-25T11:34:10.529Z,33.84
2018-05-25T11:36:41.591Z,33.09
2018-05-25T11:39:11.651Z,33.12
2018-05-25T11:41:40.627Z,33.13
2018-05-25T11:44:09.316Z,32.98
2018-05-25T11:46:37.961Z,33.16
2018-05-25T11:49:06.780Z,33.42
2018-05-25T11:51:35.720Z,33.44
2018-05-25T11:54:04.329Z,33.09
2018-05-25T11:56:36.735Z,32.50
2018-05-25T11:59:06.537Z,32.21
2018-05-25T12:04:24.065Z,32.67
2018-05-25T12:06:52.956Z,33.05
2018-05-25T12:09:21.614Z,33.36
2018-05-25T12:11:50.319Z,33.19
2018-05-25T12:14:18.926Z,33.00
2018-05-25T12:16:48.372Z,32.89
2018-05-25T12:19:20.122Z,33.10
2018-05-25T12:21:49.995Z,33.30
2018-05-25T12:24:19.303Z,33.47
2018-05-25T12:26:48.034Z,33.66
2018-05-25T12:29:16.924Z,33.79
2018-05-25T12:31:45.579Z,35.33
2018-05-25T12:34:14.393Z,34.48
2018-05-25T12:36:43.106Z,34.48
2018-05-25T12:39:12.212Z,34.56
2018-05-25T12:41:43.360Z,35.87
2018-05-25T12:44:12.257Z,34.96
2018-05-25T12:46:44.720Z,34.85
2018-05-25T12:49:14.750Z,34.75
2018-05-25T12:51:58.770Z,34.66
2018-05-25T12:57:24.864Z,33.43
2018-05-25T12:59:59.926Z,32.92
2018-05-25T13:02:31.756Z,33.80
2018-05-25T13:05:06.548Z,33.93
2018-05-25T13:07:35.841Z,34.24
2018-05-25T13:10:06.176Z,33.42
2018-05-25T13:12:35.640Z,33.32
2018-05-25T13:17:54.976Z,33.13
2018-05-25T13:20:25.824Z,32.46
2018-05-25T13:22:54.615Z,31.45
2018-05-25T13:25:23.554Z,31.03
2018-05-25T13:27:53.809Z,30.69
2018-05-25T13:30:27.138Z,30.35
2018-05-25T13:32:56.771Z,30.04
2018-05-25T13:35:29.650Z,30.00
2018-05-25T13:38:00.179Z,30.57
2018-05-25T13:40:29.240Z,30.97
2018-05-25T13:45:48.304Z,32.27
2018-05-25T13:48:17.371Z,32.64
2018-05-25T13:50:46.305Z,32.84
2018-05-25T13:53:27.773Z,33.19
2018-05-25T13:58:48.987Z,33.73
2018-05-25T14:01:20.432Z,33.99
2018-05-25T14:03:52.643Z,34.26
2018-05-25T14:06:21.468Z,34.02
2018-05-25T14:08:51.967Z,34.08
2018-05-25T14:11:21.082Z,34.28
2018-05-25T14:13:50.973Z,35.34
2018-05-25T14:16:21.762Z,35.62
2018-05-25T14:18:53.701Z,34.87
2018-05-25T14:21:22.527Z,35.83
2018-05-25T14:23:53.153Z,35.22
2018-05-25T14:26:22.467Z,36.07
2018-05-25T14:28:55.534Z,35.45
2018-05-25T14:31:28.299Z,36.36
2018-05-25T14:33:57.141Z,35.77
2018-05-25T14:36:25.794Z,35.77
2018-05-25T14:39:05.476Z,35.78
2018-05-25T14:41:39.968Z,36.82
2018-05-25T14:44:08.747Z,36.22
2018-05-25T14:46:37.841Z,36.44
2018-05-25T14:49:06.500Z,37.94
2018-05-25T14:51:35.126Z,37.77
2018-05-25T14:54:03.815Z,38.20
2018-05-25T14:56:32.815Z,39.67
2018-05-25T14:59:03.880Z,39.28
2018-05-25T15:01:34.313Z,39.56
2018-05-25T15:04:03.127Z,39.84
2018-05-25T15:06:31.782Z,40.06
2018-05-25T15:09:00.553Z,40.03
2018-05-25T15:11:29.460Z,39.64
2018-05-25T15:13:58.506Z,39.79
2018-05-25T15:16:27.146Z,39.98
2018-05-25T15:18:56.039Z,40.19
2018-05-25T15:21:24.687Z,40.44
2018-05-25T15:23:53.339Z,40.50
2018-05-25T15:26:29.546Z,39.70
2018-05-25T15:28:59.250Z,38.54
2018-05-25T15:31:27.901Z,37.86
2018-05-25T15:33:56.627Z,37.92
2018-05-25T15:36:25.686Z,38.50
2018-05-25T15:38:54.317Z,38.86
2018-05-25T15:41:23.123Z,38.53
2018-05-25T15:43:52.026Z,37.94
2018-05-25T15:46:21.127Z,37.53
2018-05-25T15:48:49.766Z,37.77
2018-05-25T15:51:18.591Z,38.28
2018-05-25T15:53:49.707Z,38.59
2018-05-25T15:56:18.673Z,38.39
2018-05-25T15:58:55.420Z,37.52
2018-05-25T16:01:24.059Z,38.81
2018-05-25T16:03:52.695Z,39.15
2018-05-25T16:06:23.198Z,38.24
2018-05-25T16:08:52.801Z,38.31
2018-05-25T16:11:21.490Z,38.24
2018-05-25T16:13:50.724Z,37.81
2018-05-25T16:16:19.366Z,37.03
2018-05-25T16:18:47.983Z,37.11
2018-05-25T16:21:17.002Z,37.18
2018-05-25T16:23:45.615Z,37.34
2018-05-25T16:26:14.252Z,39.20
2018-05-25T16:28:42.866Z,38.26
2018-05-25T16:31:11.506Z,38.03
2018-05-25T16:33:40.135Z,37.89
2018-05-25T16:36:08.783Z,37.86
2018-05-25T16:38:37.434Z,37.91
2018-05-25T16:41:06.123Z,37.89
2018-05-25T16:43:34.754Z,37.93
2018-05-25T16:46:03.407Z,37.94
2018-05-25T16:48:32.030Z,37.92
2018-05-25T16:51:00.694Z,37.78
2018-05-25T16:56:16.906Z,37.63
2018-05-25T16:58:45.534Z,37.63
2018-05-25T17:01:14.231Z,37.69
2018-05-25T17:03:42.869Z,39.30
2018-05-25T17:06:11.623Z,37.66
2018-05-25T17:08:40.717Z,37.18
2018-05-25T17:11:09.481Z,36.91
2018-05-25T17:13:38.180Z,36.79
2018-05-25T17:16:08.373Z,38.70
2018-05-25T17:18:37.331Z,37.80
2018-05-25T17:21:06.215Z,37.97
2018-05-25T17:23:35.442Z,37.93
2018-05-25T17:26:05.346Z,37.69
2018-05-25T17:28:34.105Z,37.23
2018-05-25T17:31:03.418Z,36.83
2018-05-25T17:33:32.072Z,36.73
2018-05-25T17:36:00.943Z,36.70
2018-05-25T17:38:29.789Z,36.57
2018-05-25T17:40:58.409Z,36.17
2018-05-25T17:43:27.382Z,35.70
2018-05-25T17:45:56.047Z,35.05
2018-05-25T17:48:24.731Z,34.42
2018-05-25T17:50:53.346Z,33.99
2018-05-25T17:53:21.969Z,33.62
2018-05-25T17:55:50.809Z,33.32
2018-05-25T17:58:19.453Z,32.96
2018-05-25T18:00:48.086Z,32.61
2018-05-25T18:03:16.761Z,32.27
2018-05-25T18:05:45.393Z,32.00
2018-05-25T18:08:14.042Z,31.77
2018-05-25T18:10:42.703Z,32.90
2018-05-25T18:13:11.360Z,31.66
2018-05-25T18:15:40.006Z,31.23
2018-05-25T18:18:08.680Z,30.90
2018-05-25T18:20:37.294Z,30.67
2018-05-25T18:23:05.942Z,30.37
2018-05-25T18:25:34.571Z,31.06
2018-05-25T18:28:03.271Z,29.62
2018-05-25T18:30:31.891Z,29.11
2018-05-25T18:33:00.569Z,28.81
2018-05-25T18:35:29.161Z,28.53
2018-05-25T18:37:57.801Z,28.30
2018-05-25T18:40:28.530Z,28.09
2018-05-25T18:42:57.163Z,27.81
2018-05-25T18:45:25.806Z,28.64
2018-05-25T18:47:58.736Z,27.62
2018-05-25T18:50:27.419Z,27.29
2018-05-25T18:52:56.095Z,27.05
2018-05-25T18:55:24.999Z,26.80
2018-05-25T18:57:53.974Z,26.54
2018-05-25T19:00:22.649Z,26.34
2018-05-25T19:02:51.301Z,26.13
2018-05-25T19:05:19.930Z,25.87
2018-05-25T19:07:48.555Z,25.60
2018-05-25T19:10:17.470Z,25.38
2018-05-25T19:12:46.299Z,25.16
2018-05-25T19:15:15.232Z,25.95
2018-05-25T19:17:43.857Z,25.04
2018-05-25T19:20:12.556Z,24.75
2018-05-25T19:22:41.386Z,24.56
2018-05-25T19:27:57.882Z,24.13
2018-05-25T19:30:26.800Z,23.96
2018-05-25T19:32:55.428Z,23.84
2018-05-25T19:35:24.525Z,23.66
2018-05-25T19:37:53.190Z,23.51
2018-05-25T19:40:21.878Z,23.34
2018-05-25T19:42:50.558Z,24.09
2018-05-25T19:45:19.295Z,24.12
2018-05-25T19:47:47.928Z,23.32
2018-05-25T19:50:16.638Z,23.06
2018-05-25T19:52:45.247Z,23.73
2018-05-25T19:55:13.936Z,23.00
2018-05-25T19:57:42.573Z,22.75
2018-05-25T20:00:11.259Z,22.53
2018-05-25T20:02:39.947Z,23.19
2018-05-25T20:05:08.635Z,22.40
2018-05-25T20:07:37.265Z,22.18
2018-05-25T20:10:05.969Z,22.86
2018-05-25T20:12:34.637Z,22.10
2018-05-25T20:15:03.312Z,21.91
2018-05-25T20:17:31.967Z,21.70
2018-05-25T20:20:00.640Z,21.49
2018-05-25T20:22:29.268Z,22.20
2018-05-25T20:24:58.295Z,21.44
2018-05-25T20:27:27.538Z,21.23
2018-05-25T20:29:56.490Z,21.05
2018-05-25T20:32:25.100Z,20.90
2018-05-25T20:34:53.709Z,20.75
2018-05-25T20:37:23.269Z,20.61
2018-05-25T20:39:51.874Z,20.50
2018-05-25T20:42:21.930Z,20.39
2018-05-25T20:44:50.534Z,20.30
2018-05-25T20:47:22.180Z,20.22
2018-05-25T20:49:52.181Z,20.15
2018-05-25T20:52:21.659Z,20.11
2018-05-25T20:54:51.439Z,20.06
2018-05-25T20:57:24.960Z,20.02
2018-05-25T20:59:54.130Z,19.95
2018-05-25T21:02:24.185Z,19.92
2018-05-25T21:04:53.728Z,19.87
2018-05-25T21:07:22.858Z,20.62
2018-05-25T21:09:51.530Z,20.06
2018-05-25T21:12:20.712Z,19.92
2018-05-25T21:14:49.316Z,19.84
2018-05-25T21:17:17.980Z,19.77
2018-05-25T21:19:48.745Z,19.73
2018-05-25T21:22:17.405Z,19.67
2018-05-25T21:24:46.158Z,19.59
2018-05-25T21:27:15.186Z,19.49
2018-05-25T21:29:44.202Z,19.33
2018-05-25T21:32:14.526Z,19.13
2018-05-25T21:34:43.709Z,18.88
2018-05-25T21:37:12.854Z,18.68
2018-05-25T21:39:41.480Z,18.54
2018-05-25T21:42:10.409Z,18.44
2018-05-25T21:44:39.200Z,18.40
2018-05-25T21:47:10.352Z,18.38
2018-05-25T21:49:39.103Z,18.36
2018-05-25T21:52:07.889Z,19.13
2018-05-25T21:54:39.094Z,18.57
2018-05-25T21:57:08.070Z,18.45
2018-05-25T21:59:36.705Z,18.38
2018-05-25T22:02:05.725Z,18.33
2018-05-25T22:04:34.397Z,18.34
2018-05-25T22:07:03.034Z,18.37
2018-05-25T22:09:32.026Z,18.38
2018-05-25T22:12:00.663Z,19.14
2018-05-25T22:14:29.325Z,19.33
2018-05-25T22:16:58.369Z,18.78
2018-05-25T22:19:27.024Z,18.66
2018-05-25T22:21:55.631Z,18.61
2018-05-25T22:24:24.304Z,18.54
2018-05-25T22:26:53.408Z,18.48
2018-05-25T22:29:25.947Z,18.42
2018-05-25T22:31:54.618Z,18.34
2018-05-25T22:34:23.318Z,18.29
2018-05-25T22:36:51.955Z,18.24
2018-05-25T22:39:20.609Z,18.23
2018-05-25T22:41:59.720Z,18.19
2018-05-25T22:45:05.377Z,18.15
2018-05-25T22:48:38.115Z,18.06
2018-05-25T22:52:02.354Z,17.96
2018-05-25T22:54:42.469Z,17.83
2018-05-25T22:57:12.018Z,17.78
2018-05-25T22:59:40.685Z,17.71
2018-05-25T23:02:09.358Z,17.64
2018-05-25T23:04:37.997Z,17.59
2018-05-25T23:07:06.617Z,17.54
2018-05-25T23:09:35.565Z,17.52
2018-05-25T23:12:04.183Z,17.50
2018-05-25T23:14:32.878Z,17.48
2018-05-25T23:17:01.502Z,17.47
2018-05-25T23:19:30.207Z,17.45
2018-05-25T23:21:58.882Z,17.43
2018-05-25T23:24:27.533Z,17.39
2018-05-25T23:26:56.146Z,17.37
2018-05-25T23:29:25.128Z,17.35
2018-05-25T23:31:56.240Z,17.32
2018-05-25T23:34:28.512Z,17.28
2018-05-25T23:36:57.126Z,17.23
2018-05-25T23:39:25.779Z,17.17
2018-05-25T23:41:54.413Z,17.13
2018-05-25T23:44:23.106Z,17.79
2018-05-25T23:46:51.717Z,17.21
2018-05-25T23:49:20.656Z,17.06
2018-05-25T23:51:51.204Z,16.99
2018-05-25T23:54:19.886Z,16.93
2018-05-25T23:56:48.541Z,16.87
2018-05-25T23:59:17.210Z,16.81
